JOHN F KENNEDY INTL

KJFK (JFK)
New York, New York
Towered

Vatsim Metar:
KJFK 232151Z 19008KT 10SM FEW045 FEW170 BKN250 23/18 A2986 RMK AO2 SLP112 T02280183 $

No ATC Online

Traffic

Inbound:
Ident
Type
Name
ETA
Phase
SWA1127
B738
william cairns EGKK
Deplaning
AAL2667
B789
Tomas Arteaga SCEL
Deplaning
DAL1856
A20N
Steven Whalen KPHL
22:25 Z
Descent
SA2
K
saud alageel OERK
22:31 Z
Cruse
DLH244Q
A346
Fachry WIII
22:38 Z
Descent
JBU1339
A320
Trevor vonKampen KPBI
22:36 Z
Cruse
DAL1669
A321
Gardy Duplessy KHVN
23:05 Z
Cruse
AMX404
B738
Gabriel Martin SPLX
00:09 Z
Cruse
AAL317
B738
Jairo Almonte KJFK
00:40 Z
Cruse
JBU416
A20N
1306639
02:59 Z
Climb

Outbound:
Ident
Type
Name
Destination
Phase
THY258
A339
Ralf Ritter EDDH
LTFM
Boarding
JBU337
A320
Bernardo Pereira KJFK
MDST
Taxiing Out
CSN600
B77W
Kai Fu ZGGG
ZGGG
Boarding
AAL805
B738
Dustin Lovinger
SYCJ
Climb